Wetterstation Vordersexau
Wetterdaten: Woche 16.07.12 - 22.07.12 (KW29)
Datum Zeit Temp. A. Feuchte A. Luftdruck Regen Wind Richtung Taupunkt Windchill Windben
16.07.2012 00:00 11,3 C 83 % 1022,0 hPa 0,0 l/m 0,0 km/h N-NO 8,5 C 11,3 C 0,0 km/h
16.07.2012 01:00 11,2 C 82 % 1022,4 hPa 0,0 l/m 0,0 km/h O 8,2 C 11,2 C 0,0 km/h
16.07.2012 02:00 10,9 C 81 % 1022,7 hPa 0,0 l/m 0,0 km/h O-NO 7,8 C 10,9 C 0,0 km/h
16.07.2012 03:00 11,1 C 80 % 1022,9 hPa 0,0 l/m 0,0 km/h SO 7,8 C 11,1 C 0,0 km/h
16.07.2012 04:00 11,3 C 79 % 1023,2 hPa 0,0 l/m 0,0 km/h NO 7,8 C 11,3 C 0,0 km/h
16.07.2012 05:00 10,7 C 79 % 1023,4 hPa 0,0 l/m 0,0 km/h O 7,2 C 10,7 C 0,0 km/h
16.07.2012 06:00 10,4 C 79 % 1023,7 hPa 0,0 l/m 0,0 km/h O-SO 6,9 C 10,4 C 0,0 km/h
16.07.2012 07:00 11,5 C 76 % 1024,6 hPa 0,0 l/m 0,0 km/h NO 7,4 C 11,5 C 0,0 km/h
16.07.2012 08:00 15,9 C 68 % 1025,0 hPa 0,0 l/m 0,0 km/h S-SW 10,0 C 15,9 C 0,0 km/h
16.07.2012 09:00 20,4 C 63 % 1025,3 hPa 0,0 l/m 6,5 km/h S-SW 13,1 C 20,4 C 3,6 km/h
16.07.2012 10:00 22,3 C 56 % 1025,5 hPa 0,0 l/m 4,5 km/h W-SW 13,1 C 22,3 C 2,5 km/h
16.07.2012 11:00 18,9 C 57 % 1025,6 hPa 0,0 l/m 24,6 km/h S-SW 10,2 C 14,0 C 13,7 km/h
16.07.2012 12:00 22,6 C 48 % 1025,5 hPa 0,0 l/m 11,0 km/h W 11,0 C 21,3 C 6,1 km/h
16.07.2012 13:00 21,9 C 49 % 1025,3 hPa 0,0 l/m 1,9 km/h NW 10,7 C 21,9 C 1,1 km/h
16.07.2012 14:00 19,9 C 53 % 1025,1 hPa 0,0 l/m 26,6 km/h W-NW 10,0 C 15,0 C 14,8 km/h
16.07.2012 15:00 22,1 C 49 % 1024,8 hPa 0,0 l/m 13,0 km/h W 10,9 C 20,2 C 7,2 km/h
16.07.2012 16:00 23,8 C 45 % 1024,4 hPa 0,0 l/m 7,8 km/h W 11,1 C 23,4 C 4,3 km/h
16.07.2012 17:00 22,9 C 46 % 1024,3 hPa 0,0 l/m 2,6 km/h W-SW 10,7 C 22,9 C 1,4 km/h
16.07.2012 18:00 22,3 C 50 % 1023,8 hPa 0,0 l/m 5,2 km/h S-SW 11,4 C 22,3 C 2,9 km/h
16.07.2012 19:00 21,8 C 51 % 1023,3 hPa 0,0 l/m 1,3 km/h W 11,2 C 21,8 C 0,7 km/h
16.07.2012 20:00 19,3 C 55 % 1023,4 hPa 0,0 l/m 3,2 km/h W 10,0 C 19,3 C 1,8 km/h
16.07.2012 21:00 16,5 C 65 % 1023,5 hPa 0,0 l/m 0,0 km/h S-SW 9,9 C 16,5 C 0,0 km/h
16.07.2012 22:00 15,9 C 70 % 1024,0 hPa 0,0 l/m 0,0 km/h S-SW 10,4 C 15,9 C 0,0 km/h
16.07.2012 23:00 16,9 C 64 % 1023,9 hPa 0,0 l/m 0,0 km/h W-SW 10,0 C 16,9 C 0,0 km/h
17.07.2012 00:00 17,4 C 60 % 1023,9 hPa 0,0 l/m 0,0 km/h SW 9,6 C 17,4 C 0,0 km/h
17.07.2012 01:00 17,6 C 58 % 1024,0 hPa 0,0 l/m 1,3 km/h S 9,2 C 17,6 C 0,7 km/h
17.07.2012 02:00 17,5 C 59 % 1024,0 hPa 0,0 l/m 3,2 km/h S-SW 9,4 C 17,5 C 1,8 km/h
17.07.2012 03:00 17,5 C 59 % 1023,6 hPa 0,0 l/m 5,2 km/h W-SW 9,4 C 17,5 C 2,9 km/h
17.07.2012 04:00 17,3 C 62 % 1023,5 hPa 0,0 l/m 14,9 km/h SW 9,9 C 14,0 C 8,3 km/h
17.07.2012 05:00 16,9 C 63 % 1023,1 hPa 0,0 l/m 25,3 km/h S-SW 9,8 C 11,1 C 14,0 km/h
17.07.2012 06:00 16,5 C 67 % 1023,2 hPa 0,0 l/m 20,1 km/h W-SW 10,4 C 11,7 C 11,2 km/h
17.07.2012 07:00 16,8 C 68 % 1023,5 hPa 0,0 l/m 25,9 km/h W 10,9 C 10,9 C 14,4 km/h
17.07.2012 08:00 18,1 C 65 % 1023,6 hPa 0,0 l/m 24,6 km/h SW 11,4 C 12,9 C 13,7 km/h
17.07.2012 09:00 17,9 C 66 % 1023,7 hPa 0,0 l/m 20,7 km/h SW 11,5 C 13,3 C 11,5 km/h
17.07.2012 10:00 18,9 C 64 % 1023,9 hPa 0,0 l/m 16,2 km/h W 11,9 C 15,6 C 9,0 km/h
17.07.2012 11:00 20,3 C 64 % 1024,0 hPa 0,0 l/m 11,0 km/h SW 13,3 C 18,7 C 6,1 km/h
17.07.2012 12:00 22,3 C 59 % 1024,1 hPa 0,0 l/m 25,3 km/h S-SW 13,9 C 18,5 C 14,0 km/h
17.07.2012 13:00 22,3 C 59 % 1024,3 hPa 0,0 l/m 18,8 km/h W 13,9 C 19,4 C 10,4 km/h
17.07.2012 14:00 24,8 C 52 % 1024,2 hPa 0,0 l/m 10,4 km/h S-SW 14,3 C 23,9 C 5,8 km/h
17.07.2012 15:00 24,7 C 51 % 1023,7 hPa 0,0 l/m 11,7 km/h W 13,9 C 23,5 C 6,5 km/h
17.07.2012 16:00 23,2 C 51 % 1023,3 hPa 0,0 l/m 0,0 km/h W-NW 12,5 C 23,2 C 0,0 km/h
17.07.2012 17:00 25,3 C 49 % 1023,2 hPa 0,0 l/m 0,0 km/h W 13,8 C 25,3 C 0,0 km/h
17.07.2012 18:00 23,4 C 49 % 1023,2 hPa 0,0 l/m 5,8 km/h NW 12,1 C 23,4 C 3,2 km/h
17.07.2012 19:00 27,4 C 39 % 1022,9 hPa 0,0 l/m 3,2 km/h W-NW 12,2 C 27,4 C 1,8 km/h
17.07.2012 20:00 21,3 C 53 % 1023,2 hPa 0,0 l/m 0,0 km/h W-NW 11,3 C 21,3 C 0,0 km/h
17.07.2012 21:00 18,6 C 69 % 1023,4 hPa 0,0 l/m 0,0 km/h W-NW 12,8 C 18,6 C 0,0 km/h
17.07.2012 22:00 17,8 C 73 % 1023,8 hPa 0,0 l/m 0,0 km/h NO 12,9 C 17,8 C 0,0 km/h
17.07.2012 23:00 17,6 C 75 % 1023,6 hPa 0,0 l/m 0,0 km/h N-NO 13,1 C 17,6 C 0,0 km/h
18.07.2012 00:00 17,3 C 77 % 1023,6 hPa 0,0 l/m 0,0 km/h N-NO 13,2 C 17,3 C 0,0 km/h
18.07.2012 01:00 16,7 C 79 % 1023,3 hPa 0,0 l/m 0,0 km/h O 13,0 C 16,7 C 0,0 km/h
18.07.2012 02:00 16,3 C 81 % 1022,9 hPa 0,0 l/m 0,0 km/h O-NO 13,0 C 16,3 C 0,0 km/h
18.07.2012 03:00 15,8 C 81 % 1022,4 hPa 0,0 l/m 0,0 km/h NO 12,5 C 15,8 C 0,0 km/h
18.07.2012 04:00 15,8 C 82 % 1021,6 hPa 0,0 l/m 0,0 km/h O-NO 12,7 C 15,8 C 0,0 km/h
18.07.2012 05:00 15,1 C 83 % 1020,9 hPa 0,0 l/m 0,0 km/h O-NO 12,2 C 15,1 C 0,0 km/h
18.07.2012 06:00 15,6 C 83 % 1020,6 hPa 0,0 l/m 0,0 km/h SO 12,7 C 15,6 C 0,0 km/h
18.07.2012 07:00 16,2 C 83 % 1019,9 hPa 0,0 l/m 0,0 km/h O-NO 13,3 C 16,2 C 0,0 km/h
18.07.2012 08:00 26,9 C 60 % 1019,5 hPa 0,0 l/m 0,0 km/h W 18,5 C 26,9 C 0,0 km/h
18.07.2012 09:00 28,8 C 49 % 1019,3 hPa 0,0 l/m 0,0 km/h W-SW 17,0 C 28,8 C 0,0 km/h
18.07.2012 10:00 28,2 C 49 % 1018,5 hPa 0,0 l/m 5,8 km/h W 16,5 C 28,2 C 3,2 km/h
18.07.2012 11:00 28,9 C 48 % 1017,9 hPa 0,0 l/m 1,9 km/h SW 16,8 C 28,9 C 1,1 km/h
18.07.2012 12:00 28,1 C 49 % 1017,2 hPa 0,0 l/m 9,7 km/h SW 16,4 C 27,6 C 5,4 km/h
18.07.2012 13:00 27,7 C 50 % 1016,3 hPa 0,0 l/m 27,9 km/h SW 16,3 C 25,7 C 15,5 km/h
18.07.2012 14:00 27,9 C 49 % 1015,9 hPa 0,0 l/m 20,1 km/h W-SW 16,2 C 26,4 C 11,2 km/h
18.07.2012 15:00 28,4 C 48 % 1015,0 hPa 0,0 l/m 7,8 km/h W-SW 16,3 C 28,2 C 4,3 km/h
18.07.2012 16:00 29,1 C 45 % 1014,4 hPa 0,0 l/m 22,7 km/h W 15,9 C 27,8 C 12,6 km/h
18.07.2012 17:00 28,6 C 41 % 1013,7 hPa 0,0 l/m 19,4 km/h W-SW 14,0 C 27,4 C 10,8 km/h
18.07.2012 18:00 28,6 C 41 % 1013,0 hPa 0,0 l/m 14,9 km/h W-SW 14,0 C 27,7 C 8,3 km/h
18.07.2012 19:00 27,0 C 41 % 1012,4 hPa 0,0 l/m 29,2 km/h W-SW 12,6 C 24,6 C 16,2 km/h
18.07.2012 20:00 23,6 C 52 % 1012,4 hPa 0,0 l/m 17,5 km/h SW 13,2 C 21,2 C 9,7 km/h
18.07.2012 21:00 21,3 C 59 % 1012,1 hPa 0,0 l/m 0,0 km/h S 13,0 C 21,3 C 0,0 km/h
18.07.2012 22:00 17,6 C 74 % 1012,1 hPa 0,0 l/m 0,0 km/h N-NO 12,9 C 17,6 C 0,0 km/h
18.07.2012 23:00 17,6 C 80 % 1011,9 hPa 0,0 l/m 0,0 km/h NO 14,1 C 17,6 C 0,0 km/h
19.07.2012 00:00 17,1 C 80 % 1011,4 hPa 0,0 l/m 0,0 km/h NO 13,6 C 17,1 C 0,0 km/h
19.07.2012 01:00 16,9 C 81 % 1010,9 hPa 0,0 l/m 3,2 km/h W-NW 13,6 C 16,9 C 1,8 km/h
19.07.2012 02:00 16,2 C 81 % 1010,5 hPa 0,0 l/m 0,0 km/h N-NO 12,9 C 16,2 C 0,0 km/h
19.07.2012 03:00 17,1 C 82 % 1010,4 hPa 0,0 l/m 0,0 km/h W-SW 14,0 C 17,1 C 0,0 km/h
19.07.2012 04:00 16,5 C 83 % 1010,0 hPa 0,0 l/m 0,0 km/h NW 13,6 C 16,5 C 0,0 km/h
19.07.2012 05:00 16,1 C 83 % 1010,1 hPa 0,0 l/m 0,0 km/h S-SW 13,2 C 16,1 C 0,0 km/h
19.07.2012 06:00 17,8 C 82 % 1010,0 hPa 0,0 l/m 0,0 km/h SW 14,7 C 17,8 C 0,0 km/h
19.07.2012 07:00 18,9 C 79 % 1010,4 hPa 0,0 l/m 0,0 km/h O-SO 15,2 C 18,9 C 0,0 km/h
19.07.2012 08:00 20,6 C 76 % 1010,6 hPa 0,0 l/m 0,0 km/h W-SW 16,2 C 20,6 C 0,0 km/h
19.07.2012 09:00 23,4 C 63 % 1010,7 hPa 0,0 l/m 16,8 km/h SW 15,9 C 21,1 C 9,4 km/h
19.07.2012 10:00 23,8 C 55 % 1011,0 hPa 0,0 l/m 7,8 km/h W-NW 14,2 C 23,4 C 4,3 km/h
19.07.2012 11:00 24,9 C 54 % 1011,6 hPa 0,0 l/m 19,4 km/h S 14,9 C 22,6 C 10,8 km/h
19.07.2012 12:00 23,1 C 59 % 1011,9 hPa 0,0 l/m 29,2 km/h W-SW 14,6 C 19,2 C 16,2 km/h
19.07.2012 13:00 21,6 C 65 % 1012,2 hPa 0,0 l/m 23,3 km/h W 14,7 C 17,8 C 13,0 km/h
19.07.2012 14:00 21,7 C 64 % 1012,7 hPa 0,0 l/m 16,2 km/h NW 14,6 C 19,1 C 9,0 km/h
19.07.2012 15:00 20,2 C 68 % 1013,1 hPa 0,0 l/m 24,0 km/h W-NW 14,1 C 15,8 C 13,3 km/h
19.07.2012 16:00 21,9 C 64 % 1012,9 hPa 0,0 l/m 16,2 km/h S-SO 14,8 C 19,3 C 9,0 km/h
19.07.2012 17:00 21,5 C 64 % 1012,7 hPa 0,0 l/m 0,0 km/h W-SW 14,4 C 21,5 C 0,0 km/h
19.07.2012 18:00 21,0 C 65 % 1012,3 hPa 0,0 l/m 0,0 km/h W-SW 14,2 C 21,0 C 0,0 km/h
19.07.2012 19:00 20,4 C 65 % 1012,1 hPa 0,0 l/m 0,0 km/h W-SW 13,6 C 20,4 C 0,0 km/h
19.07.2012 20:00 19,6 C 67 % 1012,1 hPa 0,0 l/m 0,0 km/h N-NW 13,3 C 19,6 C 0,0 km/h
19.07.2012 21:00 19,1 C 69 % 1012,4 hPa 0,0 l/m 1,9 km/h SO 13,3 C 19,1 C 1,1 km/h
19.07.2012 22:00 17,4 C 75 % 1013,3 hPa 0,0 l/m 0,0 km/h S-SO 12,9 C 17,4 C 0,0 km/h
19.07.2012 23:00 16,7 C 79 % 1013,5 hPa 0,0 l/m 3,9 km/h SO 13,0 C 16,7 C 2,2 km/h
20.07.2012 00:00 14,6 C 83 % 1013,7 hPa 0,4 l/m 0,0 km/h O 11,7 C 14,6 C 0,0 km/h
20.07.2012 01:00 14,5 C 83 % 1013,7 hPa 0,0 l/m 0,0 km/h SO 11,6 C 14,5 C 0,0 km/h
20.07.2012 02:00 14,1 C 82 % 1013,5 hPa 0,0 l/m 0,0 km/h SO 11,1 C 14,1 C 0,0 km/h
20.07.2012 03:00 13,8 C 82 % 1013,1 hPa 0,0 l/m 0,0 km/h SO 10,8 C 13,8 C 0,0 km/h
20.07.2012 04:00 13,6 C 82 % 1013,0 hPa 0,0 l/m 0,0 km/h SO 10,6 C 13,6 C 0,0 km/h
20.07.2012 05:00 13,6 C 82 % 1013,5 hPa 0,0 l/m 0,0 km/h SO 10,6 C 13,6 C 0,0 km/h
20.07.2012 06:00 13,3 C 82 % 1013,7 hPa 0,0 l/m 0,0 km/h SO 10,3 C 13,3 C 0,0 km/h
20.07.2012 07:00 14,9 C 81 % 1013,7 hPa 0,0 l/m 0,0 km/h O-SO 11,7 C 14,9 C 0,0 km/h
20.07.2012 08:00 17,0 C 83 % 1013,9 hPa 0,0 l/m 0,0 km/h SO 14,1 C 17,0 C 0,0 km/h
20.07.2012 09:00 18,2 C 77 % 1014,2 hPa 0,0 l/m 0,0 km/h N-NW 14,1 C 18,2 C 0,0 km/h
20.07.2012 10:00 19,3 C 75 % 1014,1 hPa 0,0 l/m 0,0 km/h N-NO 14,8 C 19,3 C 0,0 km/h
20.07.2012 11:00 18,4 C 77 % 1014,5 hPa 0,0 l/m 0,0 km/h N-NO 14,3 C 18,4 C 0,0 km/h
20.07.2012 12:00 18,5 C 74 % 1014,8 hPa 0,0 l/m 0,0 km/h N 13,8 C 18,5 C 0,0 km/h
20.07.2012 13:00 21,2 C 64 % 1014,8 hPa 0,0 l/m 1,9 km/h NO 14,1 C 21,2 C 1,1 km/h
20.07.2012 14:00 20,4 C 61 % 1014,8 hPa 0,0 l/m 0,0 km/h NO 12,6 C 20,4 C 0,0 km/h
20.07.2012 15:00 20,2 C 61 % 1014,4 hPa 0,0 l/m 0,0 km/h O-NO 12,4 C 20,2 C 0,0 km/h
20.07.2012 16:00 19,1 C 64 % 1014,5 hPa 0,0 l/m 0,0 km/h N-NO 12,1 C 19,1 C 0,0 km/h
20.07.2012 17:00 17,3 C 68 % 1014,8 hPa 0,0 l/m 1,9 km/h SO 11,3 C 17,3 C 1,1 km/h
20.07.2012 18:00 16,9 C 75 % 1014,8 hPa 0,4 l/m 0,0 km/h O-NO 12,4 C 16,9 C 0,0 km/h
20.07.2012 19:00 16,1 C 76 % 1015,0 hPa 0,4 l/m 0,0 km/h SO 11,9 C 16,1 C 0,0 km/h
20.07.2012 20:00 15,3 C 80 % 1015,3 hPa 0,0 l/m 0,0 km/h SO 11,9 C 15,3 C 0,0 km/h
20.07.2012 21:00 14,1 C 82 % 1015,9 hPa 0,0 l/m 0,0 km/h SO 11,1 C 14,1 C 0,0 km/h
20.07.2012 22:00 13,2 C 83 % 1016,4 hPa 0,0 l/m 0,0 km/h O-SO 10,4 C 13,2 C 0,0 km/h
20.07.2012 23:00 12,4 C 84 % 1016,4 hPa 0,0 l/m 4,5 km/h O-NO 9,8 C 12,4 C 2,5 km/h
21.07.2012 00:00 11,6 C 83 % 1017,0 hPa 0,0 l/m 0,0 km/h O-NO 8,8 C 11,6 C 0,0 km/h
21.07.2012 01:00 12,5 C 82 % 1016,8 hPa 0,0 l/m 0,0 km/h O-SO 9,5 C 12,5 C 0,0 km/h
21.07.2012 02:00 12,9 C 82 % 1016,6 hPa 0,0 l/m 0,0 km/h S-SO 9,9 C 12,9 C 0,0 km/h
21.07.2012 03:00 12,9 C 82 % 1016,2 hPa 0,0 l/m 0,0 km/h SO 9,9 C 12,9 C 0,0 km/h
21.07.2012 04:00 12,6 C 82 % 1016,3 hPa 0,0 l/m 0,0 km/h O-SO 9,6 C 12,6 C 0,0 km/h
21.07.2012 05:00 12,9 C 81 % 1016,6 hPa 0,0 l/m 0,0 km/h SO 9,7 C 12,9 C 0,0 km/h
21.07.2012 06:00 12,9 C 81 % 1016,8 hPa 0,0 l/m 0,0 km/h SO 9,7 C 12,9 C 0,0 km/h
21.07.2012 07:00 14,2 C 81 % 1017,3 hPa 0,0 l/m 0,0 km/h N-NW 11,0 C 14,2 C 0,0 km/h
21.07.2012 08:00 14,1 C 82 % 1017,7 hPa 1,1 l/m 0,0 km/h NW 11,1 C 14,1 C 0,0 km/h
21.07.2012 09:00 17,6 C 83 % 1017,8 hPa 0,4 l/m 0,0 km/h W 14,7 C 17,6 C 0,0 km/h
21.07.2012 10:00 23,1 C 62 % 1017,7 hPa 0,0 l/m 0,0 km/h N-NW 15,4 C 23,1 C 0,0 km/h
21.07.2012 11:00 26,9 C 53 % 1017,5 hPa 0,0 l/m 0,0 km/h N-NO 16,5 C 26,9 C 0,0 km/h
21.07.2012 12:00 23,5 C 53 % 1017,2 hPa 0,0 l/m 0,0 km/h N-NO 13,4 C 23,5 C 0,0 km/h
21.07.2012 13:00 18,5 C 65 % 1017,4 hPa 0,0 l/m 7,1 km/h SO 11,8 C 18,2 C 4,0 km/h
21.07.2012 14:00 19,0 C 65 % 1018,2 hPa 0,0 l/m 9,1 km/h SO 12,3 C 17,9 C 5,0 km/h
21.07.2012 15:00 19,2 C 68 % 1018,1 hPa 0,0 l/m 3,2 km/h SW 13,1 C 19,2 C 1,8 km/h
21.07.2012 16:00 24,9 C 52 % 1018,2 hPa 0,0 l/m 1,9 km/h W-NW 14,4 C 24,9 C 1,1 km/h
21.07.2012 17:00 19,6 C 68 % 1018,8 hPa 0,0 l/m 18,8 km/h NW 13,5 C 15,9 C 10,4 km/h
21.07.2012 18:00 19,0 C 66 % 1019,5 hPa 0,0 l/m 14,3 km/h N-NO 12,5 C 16,2 C 7,9 km/h
21.07.2012 19:00 14,8 C 79 % 1020,8 hPa 0,0 l/m 18,8 km/h N-NO 11,2 C 9,8 C 10,4 km/h
21.07.2012 20:00 15,1 C 80 % 1020,4 hPa 0,0 l/m 9,1 km/h N-NO 11,7 C 13,6 C 5,0 km/h
21.07.2012 21:00 13,9 C 81 % 1020,6 hPa 0,0 l/m 0,0 km/h N-NO 10,7 C 13,9 C 0,0 km/h
21.07.2012 22:00 10,9 C 83 % 1021,5 hPa 0,0 l/m 0,0 km/h SO 8,1 C 10,9 C 0,0 km/h
21.07.2012 23:00 10,9 C 83 % 1022,2 hPa 0,0 l/m 0,0 km/h O-NO 8,1 C 10,9 C 0,0 km/h
22.07.2012 00:00 10,6 C 82 % 1022,5 hPa 0,0 l/m 0,0 km/h O-NO 7,7 C 10,6 C 0,0 km/h
22.07.2012 01:00 11,2 C 81 % 1022,5 hPa 0,0 l/m 0,0 km/h SO 8,1 C 11,2 C 0,0 km/h
22.07.2012 02:00 10,5 C 82 % 1022,1 hPa 0,0 l/m 0,0 km/h N-NO 7,6 C 10,5 C 0,0 km/h
22.07.2012 03:00 9,8 C 81 % 1022,5 hPa 0,0 l/m 0,0 km/h N-NO 6,7 C 9,8 C 0,0 km/h
22.07.2012 04:00 8,8 C 82 % 1022,5 hPa 0,0 l/m 0,0 km/h N-NO 5,9 C 8,8 C 0,0 km/h
22.07.2012 05:00 8,5 C 81 % 1022,5 hPa 0,0 l/m 0,0 km/h SO 5,4 C 8,5 C 0,0 km/h
22.07.2012 06:00 8,0 C 81 % 1022,6 hPa 0,0 l/m 0,0 km/h N-NW 4,9 C 8,0 C 0,0 km/h
22.07.2012 07:00 9,4 C 75 % 1022,9 hPa 0,0 l/m 0,0 km/h W-NW 5,2 C 9,4 C 0,0 km/h
22.07.2012 08:00 12,5 C 72 % 1023,6 hPa 0,0 l/m 0,0 km/h W 7,6 C 12,5 C 0,0 km/h
22.07.2012 09:00 17,1 C 80 % 1023,6 hPa 0,0 l/m 0,0 km/h N-NO 13,6 C 17,1 C 0,0 km/h
22.07.2012 10:00 23,1 C 59 % 1023,9 hPa 0,0 l/m 0,0 km/h N-NO 14,6 C 23,1 C 0,0 km/h
22.07.2012 11:00 24,7 C 48 % 1023,6 hPa 0,0 l/m 2,6 km/h N 12,9 C 24,7 C 1,4 km/h
22.07.2012 12:00 22,6 C 48 % 1023,3 hPa 0,0 l/m 9,7 km/h O-SO 11,0 C 21,6 C 5,4 km/h
22.07.2012 13:00 23,2 C 46 % 1023,3 hPa 0,0 l/m 0,0 km/h O-SO 10,9 C 23,2 C 0,0 km/h
22.07.2012 14:00 23,9 C 42 % 1023,2 hPa 0,0 l/m 7,1 km/h N-NO 10,2 C 23,7 C 4,0 km/h
22.07.2012 15:00 26,1 C 37 % 1023,1 hPa 0,0 l/m 1,3 km/h O-NO 10,3 C 26,1 C 0,7 km/h
22.07.2012 16:00 28,9 C 31 % 1022,9 hPa 0,0 l/m 1,9 km/h N-NO 10,1 C 28,9 C 1,1 km/h
22.07.2012 17:00 29,1 C 30 % 1022,6 hPa 0,0 l/m 0,0 km/h N-NO 9,7 C 29,1 C 0,0 km/h
22.07.2012 18:00 28,4 C 27 % 1022,6 hPa 0,0 l/m 9,7 km/h NO 7,6 C 28,0 C 5,4 km/h
22.07.2012 19:00 26,8 C 30 % 1022,6 hPa 0,0 l/m 0,0 km/h N-NO 7,8 C 26,8 C 0,0 km/h
22.07.2012 20:00 19,2 C 44 % 1023,0 hPa 0,0 l/m 0,0 km/h N 6,7 C 19,2 C 0,0 km/h
22.07.2012 21:00 15,6 C 55 % 1023,1 hPa 0,0 l/m 0,0 km/h SO 6,6 C 15,6 C 0,0 km/h
22.07.2012 22:00 12,0 C 70 % 1023,9 hPa 0,0 l/m 0,0 km/h SO 6,7 C 12,0 C 0,0 km/h
22.07.2012 23:00 11,4 C 73 % 1024,0 hPa 0,0 l/m 0,0 km/h SO 6,7 C 11,4 C 0,0 km/h
Min-Datum _ 22.07.12 22.07.12 19.07.12 - 16.07.12 - 22.07.12 22.07.12 16.07.12
_ Min-Zeit 06:19 18:19 04:19 - 00:19 - 06:19 06:19 00:19
Minimum _ 8,0 C 27 % 1010,0 hPa - 0,0 km/h - 4,9 C 8,0 C 0,0 km/h
Max-Datum _ 18.07.12 20.07.12 16.07.12 21.07.12 18.07.12 - 18.07.12 22.07.12 18.07.12
_ Max-Zeit 16:19 23:19 11:19 08:19 19:19 - 08:19 17:19 19:19
Maximum _ 29,1 C 84 % 1025,6 hPa 1,1 l/m 29,2 km/h
W-SW
- 18,5 C 29,1 C 16,2 km/h
W-SW
Durchschnitt _ 18,6 C 67 % 1018,9 hPa #2,5 l/m 4,8 km/h SO 11,8 C 17,9 C 2,7 km/h
www.sexauwetter.de